sensor_id;sensor_type;location;lat;lon;timestamp;temperature;humidity
3602;DHT22;1815;50.950;6.920;2022-10-30T00:01:54;19.80;99.90
3602;DHT22;1815;50.950;6.920;2022-10-30T00:04:20;19.80;99.90
3602;DHT22;1815;50.950;6.920;2022-10-30T00:06:46;19.80;99.90
3602;DHT22;1815;50.950;6.920;2022-10-30T00:09:12;19.80;99.90
3602;DHT22;1815;50.950;6.920;2022-10-30T00:11:39;19.80;99.90
3602;DHT22;1815;50.950;6.920;2022-10-30T00:14:06;19.80;99.90
3602;DHT22;1815;50.950;6.920;2022-10-30T00:16:32;19.80;99.90
3602;DHT22;1815;50.950;6.920;2022-10-30T00:18:58;19.80;99.90
3602;DHT22;1815;50.950;6.920;2022-10-30T00:21:23;19.80;99.90
3602;DHT22;1815;50.950;6.920;2022-10-30T00:23:51;19.80;99.90
3602;DHT22;1815;50.950;6.920;2022-10-30T00:26:19;19.80;99.90
3602;DHT22;1815;50.950;6.920;2022-10-30T00:28:49;19.80;99.90
3602;DHT22;1815;50.950;6.920;2022-10-30T00:31:15;19.80;99.90
3602;DHT22;1815;50.950;6.920;2022-10-30T00:33:40;19.80;99.90
3602;DHT22;1815;50.950;6.920;2022-10-30T00:36:06;19.80;99.90
3602;DHT22;1815;50.950;6.920;2022-10-30T00:38:33;19.70;99.90
3602;DHT22;1815;50.950;6.920;2022-10-30T00:40:59;19.70;99.90
3602;DHT22;1815;50.950;6.920;2022-10-30T00:46:05;19.70;99.90
3602;DHT22;1815;50.950;6.920;2022-10-30T00:48:31;19.70;99.90
3602;DHT22;1815;50.950;6.920;2022-10-30T00:50:58;19.70;99.90
3602;DHT22;1815;50.950;6.920;2022-10-30T00:53:26;19.70;99.90
3602;DHT22;1815;50.950;6.920;2022-10-30T00:55:55;19.70;99.90
3602;DHT22;1815;50.950;6.920;2022-10-30T00:58:35;19.70;99.90
3602;DHT22;1815;50.950;6.920;2022-10-30T01:01:04;19.70;99.90
3602;DHT22;1815;50.950;6.920;2022-10-30T01:03:32;19.70;99.90
3602;DHT22;1815;50.950;6.920;2022-10-30T01:06:03;19.60;99.90
3602;DHT22;1815;50.950;6.920;2022-10-30T01:08:30;19.60;99.90
3602;DHT22;1815;50.950;6.920;2022-10-30T01:10:57;19.60;99.90
3602;DHT22;1815;50.950;6.920;2022-10-30T01:13:24;19.60;99.90
3602;DHT22;1815;50.950;6.920;2022-10-30T01:21:10;19.50;99.90
3602;DHT22;1815;50.950;6.920;2022-10-30T01:26:33;19.40;99.90
3602;DHT22;1815;50.950;6.920;2022-10-30T01:35:17;19.40;99.90
3602;DHT22;1815;50.950;6.920;2022-10-30T01:37:52;19.30;99.90
3602;DHT22;1815;50.950;6.920;2022-10-30T01:40:19;19.30;99.90
3602;DHT22;1815;50.950;6.920;2022-10-30T01:42:54;19.30;99.90
3602;DHT22;1815;50.950;6.920;2022-10-30T01:45:45;19.20;99.90
3602;DHT22;1815;50.950;6.920;2022-10-30T01:59:22;19.10;99.90
3602;DHT22;1815;50.950;6.920;2022-10-30T02:01:49;19.00;99.90
3602;DHT22;1815;50.950;6.920;2022-10-30T02:04:16;19.00;99.90
3602;DHT22;1815;50.950;6.920;2022-10-30T02:06:42;18.90;99.90
3602;DHT22;1815;50.950;6.920;2022-10-30T02:09:09;18.90;99.90
3602;DHT22;1815;50.950;6.920;2022-10-30T02:11:39;18.80;99.90
3602;DHT22;1815;50.950;6.920;2022-10-30T02:14:06;18.80;99.90
3602;DHT22;1815;50.950;6.920;2022-10-30T02:16:35;18.70;99.90
3602;DHT22;1815;50.950;6.920;2022-10-30T02:19:02;18.70;99.90
3602;DHT22;1815;50.950;6.920;2022-10-30T02:21:28;18.60;99.90
3602;DHT22;1815;50.950;6.920;2022-10-30T02:23:53;18.60;99.90
3602;DHT22;1815;50.950;6.920;2022-10-30T02:26:20;18.50;99.90
3602;DHT22;1815;50.950;6.920;2022-10-30T02:28:45;18.50;99.90
3602;DHT22;1815;50.950;6.920;2022-10-30T02:31:11;18.40;99.90
3602;DHT22;1815;50.950;6.920;2022-10-30T02:33:44;18.40;99.90
3602;DHT22;1815;50.950;6.920;2022-10-30T02:36:10;18.40;99.90
3602;DHT22;1815;50.950;6.920;2022-10-30T02:38:36;18.30;99.90
3602;DHT22;1815;50.950;6.920;2022-10-30T02:41:02;18.30;99.90
3602;DHT22;1815;50.950;6.920;2022-10-30T02:43:28;18.30;99.90
3602;DHT22;1815;50.950;6.920;2022-10-30T02:45:53;18.20;99.90
3602;DHT22;1815;50.950;6.920;2022-10-30T02:48:20;18.20;99.90
3602;DHT22;1815;50.950;6.920;2022-10-30T02:50:46;18.10;99.90
3602;DHT22;1815;50.950;6.920;2022-10-30T02:53:13;18.10;99.90
3602;DHT22;1815;50.950;6.920;2022-10-30T02:55:39;18.10;99.90
3602;DHT22;1815;50.950;6.920;2022-10-30T02:58:05;18.10;99.90
3602;DHT22;1815;50.950;6.920;2022-10-30T03:00:31;18.00;99.90
3602;DHT22;1815;50.950;6.920;2022-10-30T03:02:57;18.00;99.90
3602;DHT22;1815;50.950;6.920;2022-10-30T03:05:23;18.00;99.90
3602;DHT22;1815;50.950;6.920;2022-10-30T03:07:49;17.90;99.90
3602;DHT22;1815;50.950;6.920;2022-10-30T03:10:17;17.90;99.90
3602;DHT22;1815;50.950;6.920;2022-10-30T03:12:43;17.90;99.90
3602;DHT22;1815;50.950;6.920;2022-10-30T03:15:09;17.80;99.90
3602;DHT22;1815;50.950;6.920;2022-10-30T03:17:35;17.80;99.90
3602;DHT22;1815;50.950;6.920;2022-10-30T03:20:00;17.80;99.90
3602;DHT22;1815;50.950;6.920;2022-10-30T03:22:26;17.80;99.90
3602;DHT22;1815;50.950;6.920;2022-10-30T03:24:52;17.70;99.90
3602;DHT22;1815;50.950;6.920;2022-10-30T03:27:19;17.70;99.90
3602;DHT22;1815;50.950;6.920;2022-10-30T03:29:48;17.70;99.90
3602;DHT22;1815;50.950;6.920;2022-10-30T03:32:14;17.70;99.90
3602;DHT22;1815;50.950;6.920;2022-10-30T03:35:00;17.60;99.90
3602;DHT22;1815;50.950;6.920;2022-10-30T03:37:26;17.60;99.90
3602;DHT22;1815;50.950;6.920;2022-10-30T03:39:52;17.60;99.90
3602;DHT22;1815;50.950;6.920;2022-10-30T03:42:20;17.50;99.90
3602;DHT22;1815;50.950;6.920;2022-10-30T03:44:48;17.50;99.90
3602;DHT22;1815;50.950;6.920;2022-10-30T03:47:14;17.50;99.90
3602;DHT22;1815;50.950;6.920;2022-10-30T03:49:42;17.50;99.90
3602;DHT22;1815;50.950;6.920;2022-10-30T03:52:12;17.50;99.90
3602;DHT22;1815;50.950;6.920;2022-10-30T03:54:37;17.40;99.90
3602;DHT22;1815;50.950;6.920;2022-10-30T03:57:03;17.40;99.90
3602;DHT22;1815;50.950;6.920;2022-10-30T03:59:38;17.40;99.90
3602;DHT22;1815;50.950;6.920;2022-10-30T04:02:25;17.40;99.90
3602;DHT22;1815;50.950;6.920;2022-10-30T04:04:51;17.40;99.90
3602;DHT22;1815;50.950;6.920;2022-10-30T04:07:17;17.40;99.90
3602;DHT22;1815;50.950;6.920;2022-10-30T04:09:43;17.40;99.90
3602;DHT22;1815;50.950;6.920;2022-10-30T04:12:08;17.40;99.90
3602;DHT22;1815;50.950;6.920;2022-10-30T04:14:34;17.30;99.90
3602;DHT22;1815;50.950;6.920;2022-10-30T04:17:00;17.30;99.90
3602;DHT22;1815;50.950;6.920;2022-10-30T04:19:26;17.30;99.90
3602;DHT22;1815;50.950;6.920;2022-10-30T04:21:52;17.30;99.90
3602;DHT22;1815;50.950;6.920;2022-10-30T04:24:18;17.30;99.90
3602;DHT22;1815;50.950;6.920;2022-10-30T04:26:46;17.30;99.90
3602;DHT22;1815;50.950;6.920;2022-10-30T04:29:12;17.30;99.90
3602;DHT22;1815;50.950;6.920;2022-10-30T04:31:37;17.20;99.90
3602;DHT22;1815;50.950;6.920;2022-10-30T04:34:03;17.20;99.90
3602;DHT22;1815;50.950;6.920;2022-10-30T04:36:29;17.20;99.90
3602;DHT22;1815;50.950;6.920;2022-10-30T04:38:59;17.20;99.90
3602;DHT22;1815;50.950;6.920;2022-10-30T04:41:27;17.10;99.90
3602;DHT22;1815;50.950;6.920;2022-10-30T04:44:00;17.10;99.90
3602;DHT22;1815;50.950;6.920;2022-10-30T04:46:31;17.10;99.90
3602;DHT22;1815;50.950;6.920;2022-10-30T04:49:03;17.00;99.90
3602;DHT22;1815;50.950;6.920;2022-10-30T04:51:29;17.00;99.90
3602;DHT22;1815;50.950;6.920;2022-10-30T04:53:54;17.00;99.90
3602;DHT22;1815;50.950;6.920;2022-10-30T04:56:21;16.90;99.90
3602;DHT22;1815;50.950;6.920;2022-10-30T04:58:47;16.90;99.90
3602;DHT22;1815;50.950;6.920;2022-10-30T05:01:13;16.90;99.90
3602;DHT22;1815;50.950;6.920;2022-10-30T05:03:38;16.90;99.90
3602;DHT22;1815;50.950;6.920;2022-10-30T05:06:26;16.90;99.90
3602;DHT22;1815;50.950;6.920;2022-10-30T05:08:52;16.80;99.90
3602;DHT22;1815;50.950;6.920;2022-10-30T05:11:40;16.80;99.90
3602;DHT22;1815;50.950;6.920;2022-10-30T05:14:07;16.80;99.90
3602;DHT22;1815;50.950;6.920;2022-10-30T05:16:32;16.80;99.90
3602;DHT22;1815;50.950;6.920;2022-10-30T05:19:00;16.80;99.90
3602;DHT22;1815;50.950;6.920;2022-10-30T05:21:27;16.80;99.90
3602;DHT22;1815;50.950;6.920;2022-10-30T05:23:53;16.80;99.90
3602;DHT22;1815;50.950;6.920;2022-10-30T05:26:19;16.80;99.90
3602;DHT22;1815;50.950;6.920;2022-10-30T05:28:44;16.80;99.90
3602;DHT22;1815;50.950;6.920;2022-10-30T05:31:10;16.80;99.90
3602;DHT22;1815;50.950;6.920;2022-10-30T05:33:55;16.80;99.90
3602;DHT22;1815;50.950;6.920;2022-10-30T05:36:22;16.80;99.90
3602;DHT22;1815;50.950;6.920;2022-10-30T05:38:49;16.70;99.90
3602;DHT22;1815;50.950;6.920;2022-10-30T05:41:26;16.70;99.90
3602;DHT22;1815;50.950;6.920;2022-10-30T05:43:52;16.80;99.90
3602;DHT22;1815;50.950;6.920;2022-10-30T05:46:18;16.70;99.90
3602;DHT22;1815;50.950;6.920;2022-10-30T05:48:45;16.70;99.90
3602;DHT22;1815;50.950;6.920;2022-10-30T05:51:11;16.80;99.90
3602;DHT22;1815;50.950;6.920;2022-10-30T05:53:41;16.80;99.90
3602;DHT22;1815;50.950;6.920;2022-10-30T05:56:07;16.80;99.90
3602;DHT22;1815;50.950;6.920;2022-10-30T05:58:34;16.80;99.90
3602;DHT22;1815;50.950;6.920;2022-10-30T06:01:06;16.80;99.90
3602;DHT22;1815;50.950;6.920;2022-10-30T06:03:42;16.80;99.90
3602;DHT22;1815;50.950;6.920;2022-10-30T06:06:10;16.90;99.90
3602;DHT22;1815;50.950;6.920;2022-10-30T06:08:36;16.90;99.90
3602;DHT22;1815;50.950;6.920;2022-10-30T06:11:22;16.90;99.90
3602;DHT22;1815;50.950;6.920;2022-10-30T06:13:52;16.90;99.90
3602;DHT22;1815;50.950;6.920;2022-10-30T06:16:23;16.90;99.90
3602;DHT22;1815;50.950;6.920;2022-10-30T06:19:09;16.80;99.90
3602;DHT22;1815;50.950;6.920;2022-10-30T06:21:35;16.80;99.90
3602;DHT22;1815;50.950;6.920;2022-10-30T06:24:17;16.80;99.90
3602;DHT22;1815;50.950;6.920;2022-10-30T06:27:03;16.80;99.90
3602;DHT22;1815;50.950;6.920;2022-10-30T06:29:29;16.80;99.90
3602;DHT22;1815;50.950;6.920;2022-10-30T06:31:55;16.90;99.90
3602;DHT22;1815;50.950;6.920;2022-10-30T06:34:21;16.90;99.90
3602;DHT22;1815;50.950;6.920;2022-10-30T06:36:48;16.90;99.90
3602;DHT22;1815;50.950;6.920;2022-10-30T06:39:14;16.90;99.90
3602;DHT22;1815;50.950;6.920;2022-10-30T06:41:58;16.80;99.90
3602;DHT22;1815;50.950;6.920;2022-10-30T06:44:38;16.80;99.90
3602;DHT22;1815;50.950;6.920;2022-10-30T06:47:04;16.80;99.90
3602;DHT22;1815;50.950;6.920;2022-10-30T06:49:30;16.80;99.90
3602;DHT22;1815;50.950;6.920;2022-10-30T06:51:57;16.80;99.90
3602;DHT22;1815;50.950;6.920;2022-10-30T06:54:23;16.70;99.90
3602;DHT22;1815;50.950;6.920;2022-10-30T06:57:13;16.80;99.90
3602;DHT22;1815;50.950;6.920;2022-10-30T06:59:57;16.70;99.90
3602;DHT22;1815;50.950;6.920;2022-10-30T07:02:59;16.80;99.90
3602;DHT22;1815;50.950;6.920;2022-10-30T07:05:27;16.80;99.90
3602;DHT22;1815;50.950;6.920;2022-10-30T07:07:57;16.80;99.90
3602;DHT22;1815;50.950;6.920;2022-10-30T07:10:23;16.80;99.90
3602;DHT22;1815;50.950;6.920;2022-10-30T07:13:20;16.90;99.90
3602;DHT22;1815;50.950;6.920;2022-10-30T07:16:01;16.90;99.90
3602;DHT22;1815;50.950;6.920;2022-10-30T07:18:34;16.90;99.90
3602;DHT22;1815;50.950;6.920;2022-10-30T07:21:01;17.00;99.90
3602;DHT22;1815;50.950;6.920;2022-10-30T07:23:28;17.00;99.90
3602;DHT22;1815;50.950;6.920;2022-10-30T07:26:04;17.10;99.90
3602;DHT22;1815;50.950;6.920;2022-10-30T07:28:36;17.10;99.90
3602;DHT22;1815;50.950;6.920;2022-10-30T07:31:22;17.20;99.90
3602;DHT22;1815;50.950;6.920;2022-10-30T07:33:50;17.30;99.90
3602;DHT22;1815;50.950;6.920;2022-10-30T07:36:51;17.40;99.90
3602;DHT22;1815;50.950;6.920;2022-10-30T07:39:39;17.40;99.90
3602;DHT22;1815;50.950;6.920;2022-10-30T07:42:20;17.50;99.90
3602;DHT22;1815;50.950;6.920;2022-10-30T07:45:06;17.50;99.90
3602;DHT22;1815;50.950;6.920;2022-10-30T07:47:41;17.60;99.90
3602;DHT22;1815;50.950;6.920;2022-10-30T07:50:22;17.60;99.90
3602;DHT22;1815;50.950;6.920;2022-10-30T07:52:48;17.70;99.90
3602;DHT22;1815;50.950;6.920;2022-10-30T07:55:18;17.70;99.90
3602;DHT22;1815;50.950;6.920;2022-10-30T07:58:02;17.70;99.90
3602;DHT22;1815;50.950;6.920;2022-10-30T08:01:03;17.80;99.90
3602;DHT22;1815;50.950;6.920;2022-10-30T08:03:31;17.90;99.90
3602;DHT22;1815;50.950;6.920;2022-10-30T08:06:29;18.00;99.90
3602;DHT22;1815;50.950;6.920;2022-10-30T08:08:55;18.00;99.90
3602;DHT22;1815;50.950;6.920;2022-10-30T08:11:27;18.20;99.90
3602;DHT22;1815;50.950;6.920;2022-10-30T08:13:56;18.20;99.90
3602;DHT22;1815;50.950;6.920;2022-10-30T08:16:22;18.30;99.90
3602;DHT22;1815;50.950;6.920;2022-10-30T08:18:49;18.40;99.90
3602;DHT22;1815;50.950;6.920;2022-10-30T08:21:17;18.60;99.90
3602;DHT22;1815;50.950;6.920;2022-10-30T08:23:55;18.70;99.90
3602;DHT22;1815;50.950;6.920;2022-10-30T08:26:22;18.90;99.90
3602;DHT22;1815;50.950;6.920;2022-10-30T08:28:47;19.00;99.90
3602;DHT22;1815;50.950;6.920;2022-10-30T08:31:15;19.10;99.90
3602;DHT22;1815;50.950;6.920;2022-10-30T08:34:12;19.20;99.90
3602;DHT22;1815;50.950;6.920;2022-10-30T08:36:50;19.30;99.90
3602;DHT22;1815;50.950;6.920;2022-10-30T08:39:17;19.50;99.90
3602;DHT22;1815;50.950;6.920;2022-10-30T08:41:50;19.80;99.90
3602;DHT22;1815;50.950;6.920;2022-10-30T08:44:17;20.20;99.90
3602;DHT22;1815;50.950;6.920;2022-10-30T08:47:03;20.60;99.90
3602;DHT22;1815;50.950;6.920;2022-10-30T08:49:30;20.90;99.90
3602;DHT22;1815;50.950;6.920;2022-10-30T08:51:58;21.20;99.90
3602;DHT22;1815;50.950;6.920;2022-10-30T08:54:25;21.50;99.90
3602;DHT22;1815;50.950;6.920;2022-10-30T08:56:51;21.80;99.90
3602;DHT22;1815;50.950;6.920;2022-10-30T08:59:16;22.10;99.90
3602;DHT22;1815;50.950;6.920;2022-10-30T09:01:44;22.30;99.90
3602;DHT22;1815;50.950;6.920;2022-10-30T09:04:30;22.40;99.90
3602;DHT22;1815;50.950;6.920;2022-10-30T09:07:05;22.70;99.90
3602;DHT22;1815;50.950;6.920;2022-10-30T09:09:54;23.00;99.90
3602;DHT22;1815;50.950;6.920;2022-10-30T09:12:23;23.60;99.90
3602;DHT22;1815;50.950;6.920;2022-10-30T09:14:49;23.90;99.90
3602;DHT22;1815;50.950;6.920;2022-10-30T09:17:15;24.10;99.90
3602;DHT22;1815;50.950;6.920;2022-10-30T09:19:43;24.30;99.90
3602;DHT22;1815;50.950;6.920;2022-10-30T09:22:13;24.70;99.90
3602;DHT22;1815;50.950;6.920;2022-10-30T09:24:40;25.30;99.90
3602;DHT22;1815;50.950;6.920;2022-10-30T09:27:29;25.80;99.90
3602;DHT22;1815;50.950;6.920;2022-10-30T09:29:57;26.40;99.90
3602;DHT22;1815;50.950;6.920;2022-10-30T09:32:28;26.60;99.90
3602;DHT22;1815;50.950;6.920;2022-10-30T09:35:14;26.80;99.90
3602;DHT22;1815;50.950;6.920;2022-10-30T09:37:41;26.80;99.90
3602;DHT22;1815;50.950;6.920;2022-10-30T09:40:21;26.90;99.90
3602;DHT22;1815;50.950;6.920;2022-10-30T09:42:50;26.80;98.00
3602;DHT22;1815;50.950;6.920;2022-10-30T09:45:47;26.70;99.80
3602;DHT22;1815;50.950;6.920;2022-10-30T09:57:25;27.20;99.40
3602;DHT22;1815;50.950;6.920;2022-10-30T10:05:26;27.40;98.60
3602;DHT22;1815;50.950;6.920;2022-10-30T10:08:05;27.60;98.90
3602;DHT22;1815;50.950;6.920;2022-10-30T10:10:53;27.80;98.80
3602;DHT22;1815;50.950;6.920;2022-10-30T10:13:27;28.10;98.20
3602;DHT22;1815;50.950;6.920;2022-10-30T10:15:58;28.20;97.60
3602;DHT22;1815;50.950;6.920;2022-10-30T10:18:34;28.30;95.90
3602;DHT22;1815;50.950;6.920;2022-10-30T10:21:11;28.30;95.10
3602;DHT22;1815;50.950;6.920;2022-10-30T10:23:49;28.10;94.00
3602;DHT22;1815;50.950;6.920;2022-10-30T10:26:48;27.90;94.30
3602;DHT22;1815;50.950;6.920;2022-10-30T10:29:33;27.60;93.30
3602;DHT22;1815;50.950;6.920;2022-10-30T10:32:56;27.30;93.80
3602;DHT22;1815;50.950;6.920;2022-10-30T10:38:25;26.90;93.20
3602;DHT22;1815;50.950;6.920;2022-10-30T10:47:06;26.80;94.50
3602;DHT22;1815;50.950;6.920;2022-10-30T10:52:19;26.80;94.00
3602;DHT22;1815;50.950;6.920;2022-10-30T10:57:31;26.40;93.60
3602;DHT22;1815;50.950;6.920;2022-10-30T11:00:02;26.20;93.30
3602;DHT22;1815;50.950;6.920;2022-10-30T11:02:31;26.00;93.20
3602;DHT22;1815;50.950;6.920;2022-10-30T11:08:15;25.40;92.70
3602;DHT22;1815;50.950;6.920;2022-10-30T11:10:41;25.10;93.10
3602;DHT22;1815;50.950;6.920;2022-10-30T11:13:11;24.90;93.60
3602;DHT22;1815;50.950;6.920;2022-10-30T11:15:55;24.70;93.80
3602;DHT22;1815;50.950;6.920;2022-10-30T11:18:24;24.50;94.20
3602;DHT22;1815;50.950;6.920;2022-10-30T11:23:58;24.40;95.00
3602;DHT22;1815;50.950;6.920;2022-10-30T11:26:27;24.40;95.40
3602;DHT22;1815;50.950;6.920;2022-10-30T11:29:13;24.40;95.50
3602;DHT22;1815;50.950;6.920;2022-10-30T11:31:42;24.30;95.70
3602;DHT22;1815;50.950;6.920;2022-10-30T11:36:47;24.20;95.90
3602;DHT22;1815;50.950;6.920;2022-10-30T11:39:18;24.20;96.00
3602;DHT22;1815;50.950;6.920;2022-10-30T11:44:49;24.20;96.20
3602;DHT22;1815;50.950;6.920;2022-10-30T11:47:21;24.20;96.50
3602;DHT22;1815;50.950;6.920;2022-10-30T11:49:55;24.20;96.30
3602;DHT22;1815;50.950;6.920;2022-10-30T11:52:23;24.20;96.30
3602;DHT22;1815;50.950;6.920;2022-10-30T11:57:31;24.20;96.40
3602;DHT22;1815;50.950;6.920;2022-10-30T11:59:58;24.20;96.40
3602;DHT22;1815;50.950;6.920;2022-10-30T12:02:28;24.10;96.30
3602;DHT22;1815;50.950;6.920;2022-10-30T12:05:00;24.20;96.30
3602;DHT22;1815;50.950;6.920;2022-10-30T12:07:30;24.20;96.40
3602;DHT22;1815;50.950;6.920;2022-10-30T12:09:56;24.10;96.50
3602;DHT22;1815;50.950;6.920;2022-10-30T12:12:35;24.20;96.60
3602;DHT22;1815;50.950;6.920;2022-10-30T12:17:40;24.30;96.90
3602;DHT22;1815;50.950;6.920;2022-10-30T12:20:11;24.30;96.90
3602;DHT22;1815;50.950;6.920;2022-10-30T12:22:38;24.30;96.70
3602;DHT22;1815;50.950;6.920;2022-10-30T12:27:50;24.30;96.40
3602;DHT22;1815;50.950;6.920;2022-10-30T12:30:22;24.30;96.40
3602;DHT22;1815;50.950;6.920;2022-10-30T12:32:56;24.30;96.40
3602;DHT22;1815;50.950;6.920;2022-10-30T12:35:39;24.30;96.50
3602;DHT22;1815;50.950;6.920;2022-10-30T12:38:38;24.40;96.60
3602;DHT22;1815;50.950;6.920;2022-10-30T12:43:44;24.50;96.50
3602;DHT22;1815;50.950;6.920;2022-10-30T12:46:47;24.50;96.40
3602;DHT22;1815;50.950;6.920;2022-10-30T12:52:22;24.50;96.50
3602;DHT22;1815;50.950;6.920;2022-10-30T12:55:18;24.50;96.40
3602;DHT22;1815;50.950;6.920;2022-10-30T12:58:26;24.60;96.60
3602;DHT22;1815;50.950;6.920;2022-10-30T13:03:30;24.70;96.30
3602;DHT22;1815;50.950;6.920;2022-10-30T13:06:22;24.70;96.40
3602;DHT22;1815;50.950;6.920;2022-10-30T13:09:26;24.80;96.50
3602;DHT22;1815;50.950;6.920;2022-10-30T13:12:31;24.90;96.70
3602;DHT22;1815;50.950;6.920;2022-10-30T13:15:25;24.90;95.60
3602;DHT22;1815;50.950;6.920;2022-10-30T13:17:52;24.90;95.40
3602;DHT22;1815;50.950;6.920;2022-10-30T13:20:21;25.00;95.70
3602;DHT22;1815;50.950;6.920;2022-10-30T13:22:56;25.00;95.50
3602;DHT22;1815;50.950;6.920;2022-10-30T13:25:41;25.00;94.90
3602;DHT22;1815;50.950;6.920;2022-10-30T13:28:32;25.00;94.70
3602;DHT22;1815;50.950;6.920;2022-10-30T13:36:30;25.00;93.70
3602;DHT22;1815;50.950;6.920;2022-10-30T13:50:14;25.00;93.30
3602;DHT22;1815;50.950;6.920;2022-10-30T13:52:48;25.00;93.60
3602;DHT22;1815;50.950;6.920;2022-10-30T13:55:20;25.00;93.50
3602;DHT22;1815;50.950;6.920;2022-10-30T14:06:08;24.80;92.90
3602;DHT22;1815;50.950;6.920;2022-10-30T14:11:13;24.70;93.30
3602;DHT22;1815;50.950;6.920;2022-10-30T14:14:43;24.70;93.20
3602;DHT22;1815;50.950;6.920;2022-10-30T14:16:43;24.60;93.10
3602;DHT22;1815;50.950;6.920;2022-10-30T14:19:17;24.60;93.40
3602;DHT22;1815;50.950;6.920;2022-10-30T14:21:53;24.60;93.40
3602;DHT22;1815;50.950;6.920;2022-10-30T14:24:31;24.50;93.50
3602;DHT22;1815;50.950;6.920;2022-10-30T14:31:55;24.30;93.60
3602;DHT22;1815;50.950;6.920;2022-10-30T14:34:43;24.30;93.70
3602;DHT22;1815;50.950;6.920;2022-10-30T14:37:10;24.30;93.90
3602;DHT22;1815;50.950;6.920;2022-10-30T14:39:46;24.20;93.80
3602;DHT22;1815;50.950;6.920;2022-10-30T14:42:26;24.20;93.90
3602;DHT22;1815;50.950;6.920;2022-10-30T14:48:07;24.10;94.10
3602;DHT22;1815;50.950;6.920;2022-10-30T14:51:01;24.10;94.30
3602;DHT22;1815;50.950;6.920;2022-10-30T14:56:37;23.90;94.50
3602;DHT22;1815;50.950;6.920;2022-10-30T15:02:02;23.70;94.80
3602;DHT22;1815;50.950;6.920;2022-10-30T15:07:42;23.60;94.80
3602;DHT22;1815;50.950;6.920;2022-10-30T15:10:24;23.50;94.80
3602;DHT22;1815;50.950;6.920;2022-10-30T15:13:08;23.40;95.00
3602;DHT22;1815;50.950;6.920;2022-10-30T15:15:37;23.30;95.40
3602;DHT22;1815;50.950;6.920;2022-10-30T15:18:09;23.30;95.10
3602;DHT22;1815;50.950;6.920;2022-10-30T15:20:37;23.20;95.20
3602;DHT22;1815;50.950;6.920;2022-10-30T15:25:53;23.10;95.40
3602;DHT22;1815;50.950;6.920;2022-10-30T15:28:30;23.10;95.60
3602;DHT22;1815;50.950;6.920;2022-10-30T15:31:02;23.00;95.60
3602;DHT22;1815;50.950;6.920;2022-10-30T15:33:28;23.00;95.70
3602;DHT22;1815;50.950;6.920;2022-10-30T15:35:58;22.90;95.70
3602;DHT22;1815;50.950;6.920;2022-10-30T15:38:24;22.90;95.90
3602;DHT22;1815;50.950;6.920;2022-10-30T15:40:54;22.90;95.70
3602;DHT22;1815;50.950;6.920;2022-10-30T15:43:22;22.80;95.70
3602;DHT22;1815;50.950;6.920;2022-10-30T15:45:49;22.80;95.60
3602;DHT22;1815;50.950;6.920;2022-10-30T15:48:27;22.70;95.50
3602;DHT22;1815;50.950;6.920;2022-10-30T15:51:00;22.70;95.50
3602;DHT22;1815;50.950;6.920;2022-10-30T15:53:42;22.70;95.10
3602;DHT22;1815;50.950;6.920;2022-10-30T15:56:24;22.70;95.10
3602;DHT22;1815;50.950;6.920;2022-10-30T15:58:53;22.60;94.80
3602;DHT22;1815;50.950;6.920;2022-10-30T16:01:25;22.60;94.70
3602;DHT22;1815;50.950;6.920;2022-10-30T16:03:53;22.60;94.60
3602;DHT22;1815;50.950;6.920;2022-10-30T16:06:19;22.60;94.60
3602;DHT22;1815;50.950;6.920;2022-10-30T16:08:47;22.50;94.30
3602;DHT22;1815;50.950;6.920;2022-10-30T16:11:14;22.50;94.20
3602;DHT22;1815;50.950;6.920;2022-10-30T16:13:41;22.40;94.10
3602;DHT22;1815;50.950;6.920;2022-10-30T16:16:23;22.30;94.00
3602;DHT22;1815;50.950;6.920;2022-10-30T16:18:51;22.30;93.80
3602;DHT22;1815;50.950;6.920;2022-10-30T16:21:20;22.20;93.80
3602;DHT22;1815;50.950;6.920;2022-10-30T16:23:53;22.20;93.80
3602;DHT22;1815;50.950;6.920;2022-10-30T16:26:36;22.10;93.80
3602;DHT22;1815;50.950;6.920;2022-10-30T16:29:19;22.10;93.70
3602;DHT22;1815;50.950;6.920;2022-10-30T16:31:48;22.00;93.50
3602;DHT22;1815;50.950;6.920;2022-10-30T16:34:41;21.90;93.70
3602;DHT22;1815;50.950;6.920;2022-10-30T16:37:16;21.80;93.70
3602;DHT22;1815;50.950;6.920;2022-10-30T16:39:43;21.80;93.70
3602;DHT22;1815;50.950;6.920;2022-10-30T16:42:20;21.80;93.80
3602;DHT22;1815;50.950;6.920;2022-10-30T16:44:46;21.70;93.90
3602;DHT22;1815;50.950;6.920;2022-10-30T16:49:45;21.60;94.10
3602;DHT22;1815;50.950;6.920;2022-10-30T16:52:14;21.50;94.10
3602;DHT22;1815;50.950;6.920;2022-10-30T16:54:45;21.40;94.20
3602;DHT22;1815;50.950;6.920;2022-10-30T16:57:23;21.40;94.30
3602;DHT22;1815;50.950;6.920;2022-10-30T16:59:51;21.30;94.40
3602;DHT22;1815;50.950;6.920;2022-10-30T17:02:27;21.30;94.40
3602;DHT22;1815;50.950;6.920;2022-10-30T17:05:27;21.20;94.50
3602;DHT22;1815;50.950;6.920;2022-10-30T17:07:58;21.10;94.70
3602;DHT22;1815;50.950;6.920;2022-10-30T17:10:58;21.00;94.70
3602;DHT22;1815;50.950;6.920;2022-10-30T17:13:30;20.90;94.80
3602;DHT22;1815;50.950;6.920;2022-10-30T17:16:12;20.80;94.90
3602;DHT22;1815;50.950;6.920;2022-10-30T17:19:37;20.80;94.90
3602;DHT22;1815;50.950;6.920;2022-10-30T17:22:40;20.70;95.20
3602;DHT22;1815;50.950;6.920;2022-10-30T17:28:31;20.50;95.40
3602;DHT22;1815;50.950;6.920;2022-10-30T17:31:40;20.40;95.60
3602;DHT22;1815;50.950;6.920;2022-10-30T17:34:39;20.30;95.70
3602;DHT22;1815;50.950;6.920;2022-10-30T17:37:08;20.30;95.80
3602;DHT22;1815;50.950;6.920;2022-10-30T17:43:27;20.20;96.20
3602;DHT22;1815;50.950;6.920;2022-10-30T17:46:12;20.10;96.10
3602;DHT22;1815;50.950;6.920;2022-10-30T17:49:01;20.00;96.20
3602;DHT22;1815;50.950;6.920;2022-10-30T17:51:30;20.00;96.40
3602;DHT22;1815;50.950;6.920;2022-10-30T17:54:33;19.90;96.50
3602;DHT22;1815;50.950;6.920;2022-10-30T17:57:14;19.90;96.70
3602;DHT22;1815;50.950;6.920;2022-10-30T18:00:30;19.90;96.90
3602;DHT22;1815;50.950;6.920;2022-10-30T18:03:03;19.90;96.70
3602;DHT22;1815;50.950;6.920;2022-10-30T18:05:32;19.80;97.00
3602;DHT22;1815;50.950;6.920;2022-10-30T18:08:02;19.80;97.10
3602;DHT22;1815;50.950;6.920;2022-10-30T18:10:58;19.70;97.20
3602;DHT22;1815;50.950;6.920;2022-10-30T18:13:24;19.70;97.40
3602;DHT22;1815;50.950;6.920;2022-10-30T18:15:59;19.70;97.40
3602;DHT22;1815;50.950;6.920;2022-10-30T18:18:31;19.70;97.60
3602;DHT22;1815;50.950;6.920;2022-10-30T18:21:13;19.60;97.60
3602;DHT22;1815;50.950;6.920;2022-10-30T18:24:14;19.60;97.70
3602;DHT22;1815;50.950;6.920;2022-10-30T18:33:03;19.50;97.80
3602;DHT22;1815;50.950;6.920;2022-10-30T18:35:40;19.40;98.00
3602;DHT22;1815;50.950;6.920;2022-10-30T18:38:06;19.30;98.20
3602;DHT22;1815;50.950;6.920;2022-10-30T18:40:46;19.30;98.20
3602;DHT22;1815;50.950;6.920;2022-10-30T18:43:46;19.30;98.60
3602;DHT22;1815;50.950;6.920;2022-10-30T18:46:29;19.30;98.70
3602;DHT22;1815;50.950;6.920;2022-10-30T18:49:16;19.30;98.80
3602;DHT22;1815;50.950;6.920;2022-10-30T18:51:49;19.30;98.90
3602;DHT22;1815;50.950;6.920;2022-10-30T18:54:28;19.20;98.90
3602;DHT22;1815;50.950;6.920;2022-10-30T18:57:02;19.20;99.30
3602;DHT22;1815;50.950;6.920;2022-10-30T18:59:46;19.20;99.50
3602;DHT22;1815;50.950;6.920;2022-10-30T19:02:42;19.20;99.40
3602;DHT22;1815;50.950;6.920;2022-10-30T19:05:48;19.20;99.70
3602;DHT22;1815;50.950;6.920;2022-10-30T19:08:19;19.20;99.70
3602;DHT22;1815;50.950;6.920;2022-10-30T19:11:16;19.20;99.60
3602;DHT22;1815;50.950;6.920;2022-10-30T19:13:57;19.10;99.90